Saint George, Canada
Current Conditions -  °F | °C
As of 3:00 AM on Friday 19 Dec 2014 (Local Time) from CYSJ Reporting Station
Overcast Overcast  
Wind Chill: 18°   Ceiling: 2200
Heat Index: 28°   Visibility: 15mi
Dew Point: 25°   Wind: 13mph
Humidity: 86%   Direction: 300°WNW
Pressure: 29.6"   Gusts: 22mph
Location:  45.13°N, 66.82°W
Report Text: CYSJ 190700Z 30011G19KT 15SM OVC022 M02/M04 A2960 RMK SC8 SLP030
Loading
Personal Weather Stations






























Interactive Weather Map New forecast layout! Learn more

10-Day Weather Forecast

Advertisements
Track Severe Weather on mobile